Time;durP1;ratioP1;P1;durP2;ratioP2;P2;SDS_P1;SDS_P2;PMS_P1;PMS_P2;Temp;Humidity;BMP_temperature;BMP_pressure;BME280_temperature;BME280_humidity;BME280_pressure;Samples;Min_cycle;Max_cycle;Signal;HPM_P1;HPM_P2
2022/07/26 00:02:04;;;;;;;48.78;25.27;;;;;;;24.37;46.04;99828.09;4987242;28;20030;-68
2022/07/26 00:04:29;;;;;;;49.70;27.33;;;;;;;24.43;46.59;99849.09;4987305;28;20457;-67
2022/07/26 00:06:55;;;;;;;49.92;28.30;;;;;;;24.37;46.61;99841.81;4987816;28;20524;-68
2022/07/26 00:09:21;;;;;;;63.65;33.25;;;;;;;24.28;47.03;99840.47;4987514;28;20372;-67
2022/07/26 00:11:46;;;;;;;69.15;34.45;;;;;;;24.27;47.18;99844.28;4987430;28;20117;-69
2022/07/26 00:14:12;;;;;;;72.15;35.65;;;;;;;24.20;47.68;99846.31;4985835;28;20060;-67
2022/07/26 00:16:38;;;;;;;77.63;37.35;;;;;;;23.97;48.07;99807.88;4987693;28;20493;-69
2022/07/26 00:19:06;;;;;;;63.40;35.45;;;;;;;24.05;48.09;99828.59;4987325;28;20026;-67
2022/07/26 00:21:35;;;;;;;64.65;34.95;;;;;;;24.01;48.31;99820.03;4987333;28;20435;-68
2022/07/26 00:24:02;;;;;;;66.65;35.88;;;;;;;23.93;48.44;99820.31;4987094;28;20088;-68
2022/07/26 00:26:28;;;;;;;65.38;34.55;;;;;;;23.92;48.57;99823.28;4987740;28;20038;-68
2022/07/26 00:28:53;;;;;;;56.90;31.08;;;;;;;23.86;48.79;99810.53;4987918;28;20473;-69
2022/07/26 00:31:19;;;;;;;65.30;34.63;;;;;;;23.88;48.82;99844.84;4987022;28;20045;-67
2022/07/26 00:33:44;;;;;;;59.22;31.70;;;;;;;23.82;49.17;99828.47;4987400;28;20042;-66
2022/07/26 00:36:10;;;;;;;58.55;32.72;;;;;;;23.83;49.24;99841.13;4987365;28;20375;-67
2022/07/26 00:38:37;;;;;;;65.13;33.25;;;;;;;23.75;49.23;99834.06;4987300;28;20035;-68
2022/07/26 00:41:03;;;;;;;64.20;33.53;;;;;;;23.70;49.68;99828.44;4990182;28;20030;-67
2022/07/26 00:43:28;;;;;;;61.67;32.80;;;;;;;23.61;50.09;99823.50;4991085;28;20100;-68
2022/07/26 00:45:54;;;;;;;67.90;32.08;;;;;;;23.63;50.74;99837.81;4991244;28;20027;-68
2022/07/26 00:48:23;;;;;;;56.75;30.02;;;;;;;23.57;51.01;99833.25;4990967;28;20054;-68
2022/07/26 00:50:48;;;;;;;59.30;31.88;;;;;;;23.49;51.05;99826.19;4990976;28;20073;-67
2022/07/26 00:53:17;;;;;;;52.35;28.23;;;;;;;23.32;51.35;99806.00;4989409;28;20026;-68
2022/07/26 00:55:43;;;;;;;56.28;30.42;;;;;;;23.35;51.29;99805.53;4990881;28;20041;-67
2022/07/26 00:58:08;;;;;;;62.33;30.50;;;;;;;23.35;51.55;99818.38;4990741;28;20054;-68
2022/07/26 01:00:34;;;;;;;57.92;30.27;;;;;;;23.30;51.65;99816.31;4989308;28;20403;-68
2022/07/26 01:02:59;;;;;;;55.15;29.60;;;;;;;23.28;52.04;99814.88;4990685;28;20468;-68
2022/07/26 01:05:26;;;;;;;51.70;27.38;;;;;;;23.24;51.98;99824.59;4991036;28;20033;-68
2022/07/26 01:07:52;;;;;;;46.13;27.05;;;;;;;23.13;51.68;99803.44;4990895;28;20113;-68
2022/07/26 01:10:18;;;;;;;58.88;27.85;;;;;;;23.14;52.11;99814.16;4990643;28;20113;-68
2022/07/26 01:12:44;;;;;;;47.05;26.30;;;;;;;23.14;52.44;99807.84;4990541;28;20181;-68
2022/07/26 01:15:11;;;;;;;45.15;24.67;;;;;;;23.08;52.64;99806.84;4990268;28;20076;-68
2022/07/26 01:17:37;;;;;;;45.22;25.13;;;;;;;22.80;52.96;99760.06;4990783;28;20403;-68
2022/07/26 01:20:05;;;;;;;45.50;23.85;;;;;;;22.94;53.28;99791.66;4988979;28;20022;-68
2022/07/26 01:22:30;;;;;;;50.50;25.08;;;;;;;22.95;53.29;99803.44;4990461;28;20480;-68
2022/07/26 01:24:56;;;;;;;46.40;25.05;;;;;;;22.82;53.26;99782.53;4990463;28;20042;-68
2022/07/26 01:27:22;;;;;;;44.17;23.15;;;;;;;22.84;52.85;99785.88;4990454;28;20026;-68
2022/07/26 01:29:48;;;;;;;36.55;22.05;;;;;;;22.91;52.46;99789.38;4990045;28;20034;-68
2022/07/26 01:32:14;;;;;;;39.10;21.55;;;;;;;22.88;52.53;99781.63;4990266;28;20073;-68
2022/07/26 01:34:39;;;;;;;37.92;21.13;;;;;;;22.94;51.99;99788.91;4990319;28;20034;-68
2022/07/26 01:37:05;;;;;;;40.28;21.75;;;;;;;22.94;52.02;99782.59;4990069;28;20034;-67
2022/07/26 01:39:30;;;;;;;37.97;22.50;;;;;;;22.94;52.26;99777.13;4990063;28;20030;-68
2022/07/26 01:41:56;;;;;;;35.95;20.05;;;;;;;22.95;52.47;99787.03;4990405;28;20357;-68
2022/07/26 01:44:22;;;;;;;32.65;20.02;;;;;;;22.85;52.74;99773.03;4989919;28;20077;-69
2022/07/26 01:46:47;;;;;;;33.13;20.10;;;;;;;22.90;52.67;99771.31;4989999;28;20433;-68
2022/07/26 01:49:13;;;;;;;39.38;20.38;;;;;;;22.93;52.76;99772.75;4989737;28;20141;-68
2022/07/26 01:51:39;;;;;;;33.63;20.33;;;;;;;22.79;52.82;99758.34;4989246;28;20056;-67
2022/07/26 01:54:05;;;;;;;37.88;21.20;;;;;;;22.90;52.60;99771.31;4989752;28;20054;-67
2022/07/26 01:56:30;;;;;;;34.45;19.25;;;;;;;22.87;52.60;99769.00;4990283;28;20469;-68
2022/07/26 01:58:56;;;;;;;37.25;18.75;;;;;;;22.84;52.62;99766.72;4989943;28;20101;-70
2022/07/26 02:01:21;;;;;;;36.88;18.95;;;;;;;22.82;52.49;99768.03;4989854;28;20030;-69
2022/07/26 02:03:47;;;;;;;26.92;17.30;;;;;;;22.82;52.59;99763.38;4989720;28;20037;-70
2022/07/26 02:06:12;;;;;;;30.80;16.88;;;;;;;22.81;52.09;99772.66;4989570;28;20026;-69
2022/07/26 02:08:38;;;;;;;30.05;16.88;;;;;;;22.78;52.09;99764.06;4989677;28;20030;-70
2022/07/26 02:11:04;;;;;;;27.70;16.45;;;;;;;22.74;52.01;99766.41;4989496;28;20030;-69
2022/07/26 02:13:34;;;;;;;30.85;16.00;;;;;;;22.74;52.56;99760.09;4989761;28;20030;-69
2022/07/26 02:16:02;;;;;;;27.88;16.15;;;;;;;22.69;52.50;99757.22;4990489;28;20033;-70
2022/07/26 02:18:28;;;;;;;28.60;16.23;;;;;;;22.70;52.69;99756.97;4989776;28;20034;-70
2022/07/26 02:20:54;;;;;;;26.05;16.00;;;;;;;22.67;52.93;99749.25;4989643;28;20026;-69
2022/07/26 02:23:21;;;;;;;28.10;15.60;;;;;;;22.55;52.82;99729.19;4989300;28;20038;-68
2022/07/26 02:25:47;;;;;;;23.92;13.98;;;;;;;22.64;52.93;99744.25;4989522;28;20511;-70
2022/07/26 02:28:13;;;;;;;23.48;14.63;;;;;;;22.61;52.81;99738.38;4989133;28;20026;-70
2022/07/26 02:30:39;;;;;;;23.38;14.75;;;;;;;22.63;52.40;99748.00;4989287;28;20022;-70
2022/07/26 02:33:04;;;;;;;24.35;13.27;;;;;;;22.63;52.29;99747.19;4989193;28;20030;-69
2022/07/26 02:35:30;;;;;;;18.65;12.18;;;;;;;22.64;52.07;99736.03;4989535;28;20046;-70
2022/07/26 02:38:07;;;;;;;19.63;12.93;;;;;;;22.54;52.47;99719.31;4989131;28;20507;-69
2022/07/26 02:40:34;;;;;;;18.42;11.52;;;;;;;22.66;52.33;99742.09;4989380;28;20468;-70
2022/07/26 02:43:00;;;;;;;22.33;12.75;;;;;;;22.65;52.22;99745.91;4989072;28;20382;-68
2022/07/26 02:45:25;;;;;;;17.83;12.38;;;;;;;22.67;52.20;99743.78;4989310;28;20041;-69
2022/07/26 02:47:52;;;;;;;23.20;12.23;;;;;;;22.54;52.30;99719.31;4989295;28;20691;-68
2022/07/26 02:50:19;;;;;;;21.42;11.25;;;;;;;22.64;52.18;99733.31;4988931;28;20464;-69
2022/07/26 02:52:46;;;;;;;17.35;12.30;;;;;;;22.58;52.18;99731.47;4988776;28;20524;-70
2022/07/26 02:55:16;;;;;;;21.02;12.00;;;;;;;22.64;52.32;99738.75;4988635;28;20026;-69
2022/07/26 02:57:42;;;;;;;19.80;11.57;;;;;;;22.57;52.31;99732.50;4989028;28;20121;-70
2022/07/26 03:00:10;;;;;;;17.23;11.70;;;;;;;22.66;52.23;99746.75;4988406;28;20111;-70
2022/07/26 03:02:36;;;;;;;17.17;11.75;;;;;;;22.63;52.16;99752.66;4988597;28;20864;-69
2022/07/26 03:05:04;;;;;;;21.95;12.10;;;;;;;22.60;52.17;99742.19;4988012;28;20042;-70
2022/07/26 03:07:29;;;;;;;20.27;11.57;;;;;;;22.60;51.85;99747.66;4988777;28;20030;-70
2022/07/26 03:09:55;;;;;;;15.90;10.57;;;;;;;22.56;52.04;99740.94;4988510;28;20479;-69
2022/07/26 03:12:20;;;;;;;17.40;10.95;;;;;;;22.55;51.89;99742.84;4988296;28;20034;-69
2022/07/26 03:14:46;;;;;;;20.95;10.70;;;;;;;22.60;51.84;99748.47;4988573;28;20050;-69
2022/07/26 03:17:12;;;;;;;16.13;9.57;;;;;;;22.59;51.96;99743.22;4988120;28;20117;-70
2022/07/26 03:19:37;;;;;;;25.38;10.95;;;;;;;22.58;51.97;99745.13;4988607;28;20030;-71
2022/07/26 03:22:03;;;;;;;20.23;10.98;;;;;;;22.50;51.90;99733.66;4988878;28;20034;-70
2022/07/26 03:24:28;;;;;;;17.17;11.00;;;;;;;22.55;52.59;99742.84;4987954;28;20041;-70
2022/07/26 03:26:54;;;;;;;23.58;11.88;;;;;;;22.48;52.93;99739.31;4988433;28;20022;-70
2022/07/26 03:29:19;;;;;;;20.63;11.52;;;;;;;22.46;53.00;99749.63;4988187;28;20034;-69
2022/07/26 03:31:45;;;;;;;21.85;12.13;;;;;;;22.45;53.45;99747.97;4988204;28;20028;-69
2022/07/26 03:34:10;;;;;;;27.02;11.75;;;;;;;22.41;53.61;99744.00;4988317;28;20028;-69
2022/07/26 03:36:36;;;;;;;28.42;12.32;;;;;;;22.36;54.10;99743.84;4988405;28;20116;-69
2022/07/26 03:39:01;;;;;;;28.02;12.20;;;;;;;22.37;54.09;99748.22;4988238;28;20088;-69
2022/07/26 03:41:27;;;;;;;25.08;11.50;;;;;;;22.21;54.08;99727.78;4988824;28;20030;-68
2022/07/26 03:43:52;;;;;;;29.90;12.43;;;;;;;22.30;54.78;99745.56;4986078;28;20120;-70
2022/07/26 03:46:17;;;;;;;22.77;13.18;;;;;;;22.24;54.86;99741.00;4988718;28;20053;-70
2022/07/26 03:48:43;;;;;;;22.88;12.80;;;;;;;22.23;54.94;99738.50;4988799;28;20113;-70
2022/07/26 03:51:08;;;;;;;28.20;12.77;;;;;;;22.19;54.97;99738.09;4988410;28;20034;-70
2022/07/26 03:53:34;;;;;;;25.45;12.57;;;;;;;22.15;55.06;99734.13;4988945;28;20041;-69
2022/07/26 03:58:43;;;;;;;22.23;12.85;;;;;;;22.10;55.28;99725.78;4988564;28;20041;-70
2022/07/26 04:01:09;;;;;;;25.08;12.75;;;;;;;22.19;55.76;99724.44;4987973;28;20416;-70
2022/07/26 04:03:35;;;;;;;24.90;12.23;;;;;;;22.25;55.51;99733.66;4986679;28;20035;-72
2022/07/26 04:06:01;;;;;;;21.77;12.02;;;;;;;22.32;55.85;99728.97;4988061;28;20550;-68
2022/07/26 04:08:26;;;;;;;29.15;13.32;;;;;;;22.41;58.32;99722.16;4989080;28;20030;-69
2022/07/26 04:10:52;;;;;;;22.90;11.68;;;;;;;22.52;57.06;99715.97;4986292;28;20400;-70
2022/07/26 04:13:18;;;;;;;19.17;10.77;;;;;;;22.63;54.75;99703.44;4988080;28;20026;-71
2022/07/26 04:15:44;;;;;;;26.77;9.98;;;;;;;22.69;52.81;99694.34;4987912;28;20048;-70
2022/07/26 04:18:09;;;;;;;15.57;9.93;;;;;;;22.93;51.71;99713.41;4989172;28;20030;-69
2022/07/26 04:20:34;;;;;;;20.77;9.75;;;;;;;23.08;50.40;99716.56;4988651;28;20053;-70
2022/07/26 04:23:00;;;;;;;17.27;9.05;;;;;;;23.22;49.64;99712.63;4989280;28;20038;-71
2022/07/26 04:25:25;;;;;;;13.88;9.57;;;;;;;23.38;49.39;99717.44;4986566;28;20049;-69
2022/07/26 04:27:51;;;;;;;13.48;8.63;;;;;;;23.52;49.23;99708.00;4988808;28;20037;-69
2022/07/26 04:30:16;;;;;;;15.50;9.77;;;;;;;23.62;48.57;99693.75;4988665;28;20033;-70
2022/07/26 04:32:43;;;;;;;17.00;8.82;;;;;;;23.89;47.58;99711.44;4988184;28;20141;-70
2022/07/26 04:35:09;;;;;;;16.65;8.82;;;;;;;23.94;47.21;99698.75;4987881;28;20018;-69
2022/07/26 04:37:42;;;;;;;13.48;8.90;;;;;;;24.21;46.58;99715.56;4988102;28;20480;-69
2022/07/26 04:40:09;;;;;;;13.25;8.05;;;;;;;24.38;46.29;99722.03;4987767;28;20113;-69
2022/07/26 04:42:35;;;;;;;13.65;8.05;;;;;;;24.53;45.64;99721.56;4988421;28;20038;-67
2022/07/26 04:45:03;;;;;;;14.20;8.15;;;;;;;24.58;45.42;99705.19;4988042;28;20444;-67
2022/07/26 04:47:29;;;;;;;15.20;9.07;;;;;;;24.85;45.24;99711.91;4988679;28;20387;-68
2022/07/26 04:49:54;;;;;;;11.48;7.55;;;;;;;25.01;44.88;99711.97;4988788;28;20038;-66
2022/07/26 04:52:20;;;;;;;14.75;9.27;;;;;;;25.19;44.25;99710.94;4988464;28;20053;-69
2022/07/26 04:54:45;;;;;;;17.77;8.38;;;;;;;25.34;44.09;99700.31;4988568;28;20030;-67
2022/07/26 04:57:11;;;;;;;15.88;9.05;;;;;;;25.51;43.91;99702.03;4987674;28;20030;-67
2022/07/26 04:59:36;;;;;;;20.55;9.57;;;;;;;25.59;43.32;99687.91;4989386;28;20085;-68
2022/07/26 05:02:02;;;;;;;16.45;9.27;;;;;;;25.73;43.32;99685.69;4989586;28;20034;-68
2022/07/26 05:04:27;;;;;;;14.15;9.15;;;;;;;25.89;42.88;99684.88;4989613;28;20101;-67
2022/07/26 05:06:53;;;;;;;20.10;9.25;;;;;;;26.13;42.43;99686.38;4989272;28;20035;-69
2022/07/26 05:09:18;;;;;;;21.05;8.80;;;;;;;26.28;42.19;99684.69;4990065;28;20030;-67
2022/07/26 05:11:43;;;;;;;18.45;8.48;;;;;;;26.45;41.49;99698.44;4988362;28;20031;-67
2022/07/26 05:14:09;;;;;;;15.80;8.15;;;;;;;26.62;40.79;99687.44;4988746;28;20054;-67
2022/07/26 05:16:34;;;;;;;15.85;7.97;;;;;;;26.77;40.53;99690.41;4989712;28;20042;-68
2022/07/26 05:19:00;;;;;;;13.23;7.88;;;;;;;27.01;40.00;99694.59;4987906;28;20034;-69
2022/07/26 05:21:26;;;;;;;12.63;6.85;;;;;;;27.19;39.44;99700.59;4989040;28;20504;-69
2022/07/26 05:23:53;;;;;;;10.15;6.97;;;;;;;27.41;38.99;99698.69;4988970;28;20094;-68
2022/07/26 05:26:19;;;;;;;13.88;7.30;;;;;;;27.58;38.94;99693.91;4989080;28;20492;-69
2022/07/26 05:28:44;;;;;;;11.88;7.13;;;;;;;27.70;38.92;99688.25;4989493;28;20032;-68
2022/07/26 05:31:10;;;;;;;13.05;7.15;;;;;;;27.82;38.33;99691.69;4989021;28;20105;-68
2022/07/26 05:33:35;;;;;;;15.15;6.45;;;;;;;27.94;38.26;99687.69;4991437;28;20061;-69
2022/07/26 05:36:01;;;;;;;11.82;7.13;;;;;;;28.04;38.14;99687.75;4991823;28;20480;-68
2022/07/26 05:38:26;;;;;;;8.43;6.72;;;;;;;28.17;37.94;99687.31;4992358;28;20487;-68
2022/07/26 05:40:52;;;;;;;15.30;7.47;;;;;;;28.29;37.90;99687.97;4991933;28;20388;-68
2022/07/26 05:43:17;;;;;;;14.15;6.80;;;;;;;28.38;37.37;99691.06;4991729;28;21330;-67
2022/07/26 05:45:43;;;;;;;17.40;7.35;;;;;;;28.41;38.19;99694.09;4993148;28;20038;-68
2022/07/26 05:48:08;;;;;;;14.85;7.43;;;;;;;28.47;37.64;99706.88;4992108;28;20063;-69
2022/07/26 05:50:34;;;;;;;14.98;6.93;;;;;;;28.53;36.98;99721.53;4991083;28;20120;-68
2022/07/26 05:52:59;;;;;;;11.63;6.85;;;;;;;28.65;37.28;99719.41;4990024;28;20393;-69
2022/07/26 05:55:25;;;;;;;12.75;6.60;;;;;;;28.68;37.18;99701.47;4990638;28;20408;-67
2022/07/26 05:57:51;;;;;;;12.18;6.82;;;;;;;28.85;36.84;99710.44;4988942;28;20026;-68
2022/07/26 06:00:17;;;;;;;11.10;6.30;;;;;;;29.07;36.79;99723.00;4990319;28;20033;-69
2022/07/26 06:02:42;;;;;;;8.48;5.53;;;;;;;29.10;36.12;99716.09;4991059;28;20045;-67
2022/07/26 06:05:08;;;;;;;8.05;5.85;;;;;;;29.20;36.04;99735.47;4990378;28;20034;-70
2022/07/26 06:07:33;;;;;;;10.82;6.28;;;;;;;29.15;36.00;99721.66;4991358;28;20041;-70
2022/07/26 06:09:59;;;;;;;8.82;6.13;;;;;;;29.31;36.20;99751.00;4990307;28;20652;-69
2022/07/26 06:12:24;;;;;;;11.57;5.93;;;;;;;29.33;36.03;99746.03;4988113;28;20129;-69
2022/07/26 06:14:50;;;;;;;11.77;6.00;;;;;;;29.25;35.69;99736.34;4989962;28;20018;-69
2022/07/26 06:17:16;;;;;;;6.72;5.97;;;;;;;29.29;35.73;99747.69;5002158;28;20034;-68
2022/07/26 06:19:42;;;;;;;9.23;6.05;;;;;;;29.24;35.81;99742.16;5008805;28;20042;-69
2022/07/26 06:22:07;;;;;;;7.82;4.85;;;;;;;29.11;35.69;99729.63;5006508;28;20052;-68
2022/07/26 06:24:33;;;;;;;6.13;5.07;;;;;;;29.20;35.88;99752.06;5008842;28;20037;-68
2022/07/26 06:26:59;;;;;;;6.35;5.20;;;;;;;29.32;36.35;99767.31;5004571;28;20154;-69
2022/07/26 06:29:24;;;;;;;10.15;5.10;;;;;;;29.39;35.91;99744.97;4990777;28;20037;-70
2022/07/26 06:31:50;;;;;;;12.35;5.60;;;;;;;29.45;35.76;99749.41;4990668;28;20045;-69
2022/07/26 06:34:16;;;;;;;7.80;5.28;;;;;;;29.67;35.12;99753.66;4990926;28;20038;-70
2022/07/26 06:36:41;;;;;;;9.82;5.32;;;;;;;29.77;34.94;99733.50;4991375;28;20057;-69
2022/07/26 06:39:07;;;;;;;8.15;5.07;;;;;;;30.00;34.33;99757.88;4990386;28;20041;-68
2022/07/26 06:41:32;;;;;;;12.45;5.25;;;;;;;30.05;34.28;99739.34;4991291;28;20113;-69
2022/07/26 06:43:58;;;;;;;6.57;5.40;;;;;;;30.10;34.31;99721.91;4990903;28;20058;-69
2022/07/26 06:46:23;;;;;;;7.70;5.13;;;;;;;30.27;34.41;99731.63;4991303;28;20042;-68
2022/07/26 06:48:49;;;;;;;10.20;5.18;;;;;;;30.43;34.02;99735.22;4990289;28;20022;-69
2022/07/26 06:51:15;;;;;;;10.27;5.63;;;;;;;30.63;34.24;99746.31;4989358;28;20105;-69
2022/07/26 06:53:40;;;;;;;11.98;5.60;;;;;;;30.83;33.85;99751.00;4989533;28;20058;-69
2022/07/26 06:56:06;;;;;;;14.32;6.45;;;;;;;30.79;33.67;99760.97;4988798;28;20049;-69
2022/07/26 06:58:32;;;;;;;10.85;5.78;;;;;;;30.82;33.71;99752.13;4988843;28;20109;-70
2022/07/26 07:00:57;;;;;;;11.73;6.13;;;;;;;30.62;34.02;99743.81;4988762;28;20109;-69
2022/07/26 07:03:23;;;;;;;10.30;6.45;;;;;;;30.74;33.91;99745.19;4988849;28;20098;-68
2022/07/26 07:05:48;;;;;;;9.32;6.65;;;;;;;30.78;34.44;99751.81;4988358;28;20487;-68
2022/07/26 07:08:14;;;;;;;8.50;6.28;;;;;;;30.85;33.53;99752.38;4988740;28;20022;-69
2022/07/26 07:10:40;;;;;;;10.55;5.95;;;;;;;30.93;32.50;99745.44;4989314;28;20036;-68
2022/07/26 07:13:05;;;;;;;6.60;5.95;;;;;;;30.83;32.85;99735.22;4988579;28;20038;-67
2022/07/26 07:15:31;;;;;;;9.05;5.82;;;;;;;30.86;32.86;99744.91;4988606;28;20038;-67
2022/07/26 07:17:56;;;;;;;9.48;5.65;;;;;;;30.82;32.91;99739.06;4989395;28;20057;-67
2022/07/26 07:20:22;;;;;;;14.80;5.80;;;;;;;30.91;32.92;99745.72;4989476;28;20034;-67
2022/07/26 07:22:47;;;;;;;8.15;5.47;;;;;;;30.93;32.97;99723.25;4989744;28;20037;-66
2022/07/26 07:25:13;;;;;;;7.88;5.80;;;;;;;31.28;31.97;99723.19;4989939;28;20030;-66
2022/07/26 07:27:39;;;;;;;11.00;5.80;;;;;;;31.40;32.16;99734.78;4989598;28;20539;-67
2022/07/26 07:30:05;;;;;;;8.00;5.28;;;;;;;31.47;32.13;99735.28;4989714;28;20034;-68
2022/07/26 07:32:31;;;;;;;9.02;5.78;;;;;;;31.58;31.97;99723.84;4988505;28;20076;-67
2022/07/26 07:34:56;;;;;;;9.82;5.75;;;;;;;31.71;31.84;99734.31;4987812;28;20065;-67
2022/07/26 07:37:22;;;;;;;7.78;5.10;;;;;;;31.82;31.41;99716.53;4987701;28;20018;-68
2022/07/26 07:39:48;;;;;;;7.50;4.93;;;;;;;31.96;31.51;99728.66;4987544;28;20029;-68
2022/07/26 07:42:13;;;;;;;13.10;4.80;;;;;;;32.10;31.79;99723.25;4987398;28;20033;-68
2022/07/26 07:44:40;;;;;;;6.72;4.68;;;;;;;32.17;31.35;99707.94;4985280;28;20497;-68
2022/07/26 07:47:07;;;;;;;6.65;4.50;;;;;;;32.29;31.10;99711.16;4987448;28;20034;-67
2022/07/26 07:49:34;;;;;;;5.63;5.05;;;;;;;32.29;30.95;99718.66;4986471;28;20035;-69
2022/07/26 07:52:00;;;;;;;7.10;5.05;;;;;;;32.44;31.31;99718.56;4987082;28;20026;-69
2022/07/26 07:54:25;;;;;;;6.13;4.78;;;;;;;32.34;31.51;99700.03;4986875;28;20028;-68
2022/07/26 07:56:51;;;;;;;7.43;4.88;;;;;;;32.50;31.51;99722.97;4987204;28;20057;-69
2022/07/26 07:59:17;;;;;;;11.80;5.28;;;;;;;32.62;31.32;99723.38;4987541;28;20026;-68
2022/07/26 08:01:42;;;;;;;6.32;4.78;;;;;;;32.63;31.38;99720.31;4989814;28;20094;-68
2022/07/26 08:04:08;;;;;;;6.55;5.07;;;;;;;32.75;31.62;99721.88;4988318;28;20033;-68
2022/07/26 08:06:34;;;;;;;8.15;4.82;;;;;;;32.83;31.51;99719.28;4988708;28;20105;-68
2022/07/26 08:09:00;;;;;;;9.95;5.00;;;;;;;32.86;31.39;99713.16;4987929;28;20504;-67
2022/07/26 08:11:25;;;;;;;7.82;5.40;;;;;;;33.05;31.34;99713.22;4988189;28;20037;-67
2022/07/26 08:13:51;;;;;;;9.57;4.95;;;;;;;32.94;31.31;99701.38;4988256;28;20112;-68
2022/07/26 08:16:17;;;;;;;6.93;5.65;;;;;;;33.14;31.94;99722.56;4987713;28;20511;-69
2022/07/26 08:18:42;;;;;;;7.65;5.80;;;;;;;33.14;32.46;99715.03;4987591;28;20041;-69
2022/07/26 08:21:08;;;;;;;7.68;5.40;;;;;;;33.09;32.30;99705.94;4986705;28;20045;-68
2022/07/26 08:23:34;;;;;;;7.45;5.50;;;;;;;33.13;32.54;99720.91;4986963;28;20538;-69
2022/07/26 08:26:00;;;;;;;7.72;5.45;;;;;;;33.14;32.41;99720.59;4987107;28;20113;-68
2022/07/26 08:28:27;;;;;;;6.57;5.97;;;;;;;33.18;32.53;99702.22;4986649;28;20026;-67
2022/07/26 08:30:52;;;;;;;10.68;6.05;;;;;;;33.25;32.88;99715.75;4985387;28;20037;-69
2022/07/26 08:33:18;;;;;;;9.48;5.60;;;;;;;33.24;33.14;99705.75;4986995;28;20026;-69
2022/07/26 08:35:44;;;;;;;7.93;5.70;;;;;;;33.25;32.86;99701.84;4987309;28;20116;-69
2022/07/26 08:38:09;;;;;;;7.63;5.45;;;;;;;33.15;32.86;99685.31;4986756;28;20018;-70
2022/07/26 08:40:35;;;;;;;8.20;5.38;;;;;;;33.31;32.44;99703.44;4986860;28;20128;-68
2022/07/26 08:43:01;;;;;;;7.20;5.00;;;;;;;33.37;32.05;99702.28;4986565;28;20129;-68
2022/07/26 08:45:29;;;;;;;9.00;5.90;;;;;;;33.36;32.21;99695.09;4986461;28;20264;-69
2022/07/26 08:47:55;;;;;;;7.22;5.38;;;;;;;33.36;32.06;99697.88;4986570;28;20030;-68
2022/07/26 08:50:21;;;;;;;6.22;5.32;;;;;;;33.41;32.00;99695.00;4986645;28;20038;-70
2022/07/26 08:52:46;;;;;;;8.90;5.75;;;;;;;33.51;32.59;99695.69;4986824;28;20026;-70
2022/07/26 08:55:17;;;;;;;7.53;5.45;;;;;;;33.59;31.94;99702.53;4984868;28;20086;-70
2022/07/26 08:57:42;;;;;;;12.23;5.57;;;;;;;33.68;32.16;99684.03;4986382;28;20653;-69
2022/07/26 09:00:19;;;;;;;5.95;5.35;;;;;;;33.65;32.66;99679.06;4986404;28;20117;-69
2022/07/26 09:02:46;;;;;;;9.13;5.57;;;;;;;33.81;31.82;99697.19;4990545;28;20026;-70
2022/07/26 09:05:12;;;;;;;9.38;5.47;;;;;;;33.81;31.78;99689.66;4990469;28;20074;-68
2022/07/26 09:07:38;;;;;;;10.23;6.15;;;;;;;33.87;31.92;99690.44;4989417;28;20045;-70
2022/07/26 09:10:09;;;;;;;12.45;5.60;;;;;;;33.95;31.90;99689.78;4989097;28;20072;-69
2022/07/26 09:12:36;;;;;;;13.00;5.95;;;;;;;33.97;31.09;99693.91;4988822;28;20452;-69
2022/07/26 09:15:04;;;;;;;7.43;4.85;;;;;;;34.08;31.18;99689.00;4990431;28;20033;-70
2022/07/26 09:17:45;;;;;;;6.20;4.82;;;;;;;34.22;30.01;99689.88;4990013;28;20034;-70
2022/07/26 09:20:19;;;;;;;7.47;4.88;;;;;;;34.27;30.09;99693.41;4989870;28;20369;-69
2022/07/26 09:23:06;;;;;;;8.48;4.95;;;;;;;34.41;29.66;99693.47;4990067;28;20030;-70
2022/07/26 09:25:42;;;;;;;6.65;5.10;;;;;;;34.46;29.25;99685.00;4989791;28;20065;-69
2022/07/26 09:28:25;;;;;;;6.70;4.85;;;;;;;34.52;28.75;99679.06;4989897;28;20061;-70
2022/07/26 09:30:56;;;;;;;9.77;4.65;;;;;;;34.55;28.52;99685.97;4988753;28;20590;-71
2022/07/26 09:33:24;;;;;;;6.10;5.05;;;;;;;34.63;28.72;99688.06;4990112;28;20027;-69
2022/07/26 09:36:02;;;;;;;8.95;4.88;;;;;;;34.74;29.05;99695.09;4990048;28;20495;-68
2022/07/26 09:38:45;;;;;;;6.90;4.68;;;;;;;34.75;28.78;99681.97;4989343;28;20022;-70
2022/07/26 09:41:28;;;;;;;16.60;5.05;;;;;;;34.73;29.01;99690.66;4989746;28;20591;-70
2022/07/26 09:43:59;;;;;;;7.15;4.90;;;;;;;34.76;29.11;99687.25;4987936;28;20054;-70
2022/07/26 09:46:26;;;;;;;5.90;5.32;;;;;;;34.77;29.49;99699.19;4988766;28;20099;-68
2022/07/26 09:48:55;;;;;;;7.22;5.00;;;;;;;34.84;29.41;99697.69;4990274;28;20081;-70
2022/07/26 09:51:41;;;;;;;5.60;4.90;;;;;;;34.94;29.57;99694.72;4990090;28;20084;-69
2022/07/26 09:54:09;;;;;;;6.88;5.20;;;;;;;35.04;28.92;99700.09;4988245;28;20023;-68
2022/07/26 09:56:43;;;;;;;5.43;4.90;;;;;;;35.08;28.88;99694.72;4989980;28;20042;-68
2022/07/26 09:59:08;;;;;;;5.95;5.28;;;;;;;35.05;28.92;99673.03;4989775;28;20535;-70
2022/07/26 10:01:34;;;;;;;8.25;5.47;;;;;;;35.20;29.17;99690.25;4989778;28;20030;-68
2022/07/26 10:04:00;;;;;;;7.50;4.97;;;;;;;35.18;29.44;99697.31;4989781;28;20623;-69
2022/07/26 10:06:25;;;;;;;5.80;5.03;;;;;;;35.24;29.46;99702.47;4989384;28;20833;-70
2022/07/26 10:08:51;;;;;;;8.27;5.18;;;;;;;35.18;29.91;99684.19;4988396;28;20062;-69
2022/07/26 10:11:19;;;;;;;8.10;5.32;;;;;;;35.19;30.18;99683.03;4988217;28;20038;-69
2022/07/26 10:13:44;;;;;;;10.68;5.30;;;;;;;35.19;30.66;99685.84;4988895;28;20029;-68
2022/07/26 10:16:31;;;;;;;7.32;5.32;;;;;;;35.20;30.69;99684.69;4989185;28;20026;-68
2022/07/26 10:18:57;;;;;;;9.02;5.68;;;;;;;35.21;30.27;99678.00;4989341;28;20030;-67
2022/07/26 10:21:30;;;;;;;5.95;5.30;;;;;;;35.37;29.42;99678.50;4989132;28;20114;-67
2022/07/26 10:23:58;;;;;;;6.35;5.75;;;;;;;35.37;29.31;99692.47;4989357;28;20117;-68
2022/07/26 10:26:32;;;;;;;6.35;5.32;;;;;;;35.34;29.28;99679.13;4989295;28;20038;-68
2022/07/26 10:29:16;;;;;;;5.93;5.30;;;;;;;35.35;29.82;99681.63;4989418;28;20040;-68
2022/07/26 10:31:42;;;;;;;8.48;5.32;;;;;;;35.36;29.99;99686.03;4989270;28;20034;-68
2022/07/26 10:34:08;;;;;;;11.75;5.55;;;;;;;35.38;30.01;99685.72;4989171;28;20516;-68
2022/07/26 10:36:36;;;;;;;10.30;6.22;;;;;;;35.46;30.14;99691.41;4987530;28;20113;-69
2022/07/26 10:39:15;;;;;;;11.25;5.57;;;;;;;35.55;30.53;99686.75;4989042;28;20069;-68
2022/07/26 10:41:42;;;;;;;8.90;5.78;;;;;;;35.68;31.02;99683.09;4989007;28;20088;-67
2022/07/26 10:44:20;;;;;;;6.95;6.32;;;;;;;35.60;31.55;99685.78;4988428;28;20047;-68
2022/07/26 10:46:58;;;;;;;11.38;5.78;;;;;;;35.66;31.32;99687.34;4988927;28;20098;-68
2022/07/26 10:49:49;;;;;;;5.90;5.30;;;;;;;35.67;31.34;99678.66;4988890;28;20041;-68
2022/07/26 10:52:17;;;;;;;17.83;6.93;;;;;;;35.72;31.23;99672.94;4976768;28;20049;-68
2022/07/26 10:54:58;;;;;;;9.85;6.60;;;;;;;35.66;31.38;99676.97;4989057;28;20032;-69
2022/07/26 10:57:35;;;;;;;8.85;5.95;;;;;;;35.61;31.15;99657.56;4988875;28;20039;-68
2022/07/26 11:00:06;;;;;;;8.30;6.13;;;;;;;35.64;31.34;99670.06;4988957;28;20022;-68
2022/07/26 11:02:32;;;;;;;10.05;6.60;;;;;;;35.54;33.35;99659.97;4987336;28;20548;-67
2022/07/26 11:05:04;;;;;;;10.43;5.97;;;;;;;35.58;34.61;99671.31;4988052;28;20369;-69
2022/07/26 11:07:30;;;;;;;13.90;6.97;;;;;;;35.56;34.97;99665.25;4988353;28;20459;-68
2022/07/26 11:09:57;;;;;;;14.43;7.03;;;;;;;35.47;34.76;99681.06;4988491;28;20088;-69
2022/07/26 11:12:23;;;;;;;7.85;5.82;;;;;;;35.44;34.87;99676.94;4988387;28;20033;-68
2022/07/26 11:14:49;;;;;;;11.63;6.53;;;;;;;35.33;34.87;99664.34;4988576;28;20031;-68
2022/07/26 11:17:29;;;;;;;9.88;6.68;;;;;;;35.41;35.05;99669.22;4988261;28;20106;-68
2022/07/26 11:19:55;;;;;;;10.32;6.68;;;;;;;35.24;35.37;99652.28;4988479;28;20035;-68
2022/07/26 11:22:29;;;;;;;12.05;6.63;;;;;;;35.26;35.33;99677.03;4988538;28;20038;-67
2022/07/26 11:24:55;;;;;;;7.65;6.60;;;;;;;35.15;35.29;99665.28;4988289;28;20022;-67
2022/07/26 11:27:20;;;;;;;18.85;7.05;;;;;;;35.14;35.75;99658.03;4988349;28;20160;-67